Pagrindinis puslapis
METAR-TAF:

METAR-TAF

Oro uostai :

Puntilla, Aliaska, Jungtinės Amerikos Valstijos

platuma: 62-06N, ilguma: 152-45W, Aukštis: 560 m

Dabartinis oras

Ataskaita buvo paskelbta 1 valandą ir 1 minutes, ne 17:45 UTC
Ramus vėjas
Temperatūra -22°C
Drėgmė 100%
Slėgis 1008 hPa
Matomumas: 40.2 km
Išsisklaidę debesys ne aukštis 10000 ft

METAR: PAPT 161745Z 00000KT 25SM SCT100 M22/M22 A2977 RMK NO SPECI FIRST

Laikas: 09:46 (18:46 UTC)


TAF: trūkstamas

Orai ataskaitas ir orų prognozės (METAR, TAF).

turimą stotys yra geltonos ir raudonos taškus žemėlapyje.

Perkelti pele per norėdami pamatyti stoties vardą.

Tada spustelėkite, norėdami matyti oro stebėjimo ir prognozės.

Norėdami pakeisti žemėlapį: spustelėkite ant žalios mygtukų su juodo kryžiaus žemyn,; žalią mygtuką su brūkšneliu, jei norite nutolinti; arba žalių rodyklių gretimoms žemėlapius.


METAR-TAF: